Estación Meteorológica Peña el Pijo (Robertgarden) [ 06/21/18 23:22:43 CEST ]

Fecha Hora Presion(HPa) Temp (°C) Humedad % Rocio (°C) Viento ( m/s) Direccion Lluvia 1Hora(mm) Lluvia 24H(mm) LLuvia Total(mm)
2018-Apr-21 01:01:48 1011.300 9.0 77 5.1         203.05
2018-Apr-21 02:01:38 1011.100 9.1 78 5.4         203.05
2018-Apr-21 03:01:43 1010.800 8.9 79 5.4         203.05
2018-Apr-21 04:01:42 1010.100 9.3 80 6.0         203.05
2018-Apr-21 05:01:46 1009.400 9.1 81 6.0         203.05
2018-Apr-21 06:04:19 1009.300 8.3 81 5.2         203.05
2018-Apr-21 07:01:47 1009.200 9.0 82 6.1 0.5 E     203.05
2018-Apr-21 08:01:41 1009.600 9.1 81 6.0 0.9 E     203.05
2018-Apr-21 09:01:58 1009.800 9.9 76 5.8         203.05
2018-Apr-21 10:01:46 1009.800 10.9 72 6.1         203.05
2018-Apr-21 11:01:37 1009.900 13.6 61 6.2 1.8 ENE     203.05
2018-Apr-21 12:01:43 1010.100 15.9 54 6.6 0.6 E     203.05
2018-Apr-21 13:01:43 1009.600 17.9 47 6.3         203.05
2018-Apr-21 14:02:08 1009.200 17.5 52 7.5         203.05
2018-Apr-21 15:01:44 1009.100 19.4 50 8.8         203.05
2018-Apr-21 16:01:39 1008.900 18.9 48 7.6 5.7 SSW     203.05
2018-Apr-21 17:01:47 1008.300 20.0 46 8.0         203.05
2018-Apr-21 18:01:37 1008.300 18.8 48 7.5 4.6 SW     203.05
2018-Apr-21 19:01:51 1008.300 18.1 49 7.2 4.2 SSW     203.05
2018-Apr-21 20:02:05 1008.400 15.9 53 6.3         203.05
2018-Apr-21 21:01:57 1008.700 13.9 55 5.0         203.05
2018-Apr-21 22:01:51 1009.500 12.7 58 4.6         203.05
2018-Apr-21 23:01:53 1009.900 12.4 57 4.1         203.05

Temperatura Máxima:20°    Temperatura Mínima:
Presión Máxima:1011.300 Hpa    Presión Mínima:1008.300 Hpa


Volver